createdAt,value
2024-04-06T00:02:22.289Z,99496.36
2024-04-06T00:04:58.118Z,99496.86
2024-04-06T00:07:29.574Z,99499.30
2024-04-06T00:10:00.130Z,99499.14
2024-04-06T00:12:31.755Z,99496.58
2024-04-06T00:15:02.182Z,99496.02
2024-04-06T00:17:35.177Z,99500.93
2024-04-06T00:20:06.214Z,99501.85
2024-04-06T00:22:38.069Z,99506.48
2024-04-06T00:25:09.622Z,99504.38
2024-04-06T00:27:41.075Z,99508.27
2024-04-06T00:30:11.396Z,99510.15
2024-04-06T00:32:43.324Z,99513.36
2024-04-06T00:35:14.482Z,99516.58
2024-04-06T00:37:46.363Z,99519.14
2024-04-06T00:40:16.798Z,99518.45
2024-04-06T00:42:48.552Z,99518.20
2024-04-06T00:45:19.298Z,99521.13
2024-04-06T00:47:50.734Z,99524.81
2024-04-06T00:50:21.129Z,99527.89
2024-04-06T00:52:53.021Z,99532.73
2024-04-06T00:55:23.852Z,99534.08
2024-04-06T00:57:55.407Z,99536.30
2024-04-06T01:00:26.155Z,99537.52
2024-04-06T01:02:57.695Z,99539.48
2024-04-06T01:05:28.987Z,99543.29
2024-04-06T01:08:00.720Z,99548.18
2024-04-06T01:10:31.026Z,99550.95
2024-04-06T01:13:02.672Z,99562.36
2024-04-06T01:15:36.081Z,99570.71
2024-04-06T01:18:07.618Z,99584.14
2024-04-06T01:20:43.279Z,99602.05
2024-04-06T01:23:14.937Z,99611.39
2024-04-06T01:25:47.709Z,99620.16
2024-04-06T01:28:19.364Z,99624.90
2024-04-06T01:30:49.600Z,99621.38
2024-04-06T01:33:21.343Z,99617.31
2024-04-06T01:35:51.660Z,99618.96
2024-04-06T01:38:23.343Z,99619.73
2024-04-06T01:40:53.763Z,99621.41
2024-04-06T01:43:25.425Z,99629.08
2024-04-06T01:45:55.844Z,99634.91
2024-04-06T01:48:27.489Z,99629.07
2024-04-06T01:50:58.223Z,99625.80
2024-04-06T01:53:29.699Z,99630.77
2024-04-06T01:56:00.317Z,99632.27
2024-04-06T01:58:31.867Z,99633.05
2024-04-06T02:01:02.380Z,99631.73
2024-04-06T02:03:33.935Z,99632.71
2024-04-06T02:06:04.960Z,99639.31
2024-04-06T02:08:37.142Z,99640.61
2024-04-06T02:11:07.574Z,99640.69
2024-04-06T02:13:39.018Z,99642.63
2024-04-06T02:16:09.348Z,99649.75
2024-04-06T02:18:43.043Z,99657.42
2024-04-06T02:21:13.510Z,99659.83
2024-04-06T02:23:45.027Z,99662.75
2024-04-06T02:26:15.665Z,99665.41
2024-04-06T02:28:47.527Z,99666.55
2024-04-06T02:31:17.858Z,99669.27
2024-04-06T02:33:49.293Z,99673.22
2024-04-06T02:36:20.026Z,99675.88
2024-04-06T02:38:51.682Z,99674.45
2024-04-06T02:41:22.120Z,99676.96
2024-04-06T02:43:53.767Z,99685.96
2024-04-06T02:46:24.090Z,99690.73
2024-04-06T02:48:56.053Z,99695.25
2024-04-06T02:51:26.373Z,99701.73
2024-04-06T02:53:58.237Z,99706.80
2024-04-06T02:56:28.477Z,99711.77
2024-04-06T02:59:00.234Z,99713.05
2024-04-06T03:01:30.648Z,99718.58
2024-04-06T03:04:02.196Z,99721.98
2024-04-06T03:06:32.532Z,99727.23
2024-04-06T03:09:05.308Z,99728.94
2024-04-06T03:11:35.551Z,99729.16
2024-04-06T03:14:07.075Z,99728.95
2024-04-06T03:16:37.404Z,99732.80
2024-04-06T03:19:09.069Z,99735.73
2024-04-06T03:21:39.284Z,99738.16
2024-04-06T03:24:10.728Z,99738.95
2024-04-06T03:26:46.204Z,99742.52
2024-04-06T03:29:17.623Z,99749.29
2024-04-06T03:31:48.039Z,99752.52
2024-04-06T03:34:19.699Z,99752.70
2024-04-06T03:36:50.021Z,99751.05
2024-04-06T03:39:21.586Z,99752.73
2024-04-06T03:41:51.896Z,99754.25
2024-04-06T03:44:23.452Z,99755.70
2024-04-06T03:46:54.178Z,99764.56
2024-04-06T03:49:25.743Z,99767.35
2024-04-06T03:51:56.055Z,99769.96
2024-04-06T03:54:27.725Z,99767.04
2024-04-06T03:56:58.046Z,99775.38
2024-04-06T03:59:29.704Z,99777.95
2024-04-06T04:02:00.229Z,99780.02
2024-04-06T04:04:31.783Z,99780.52
2024-04-06T04:07:02.100Z,99781.49
2024-04-06T04:09:36.838Z,99780.84
2024-04-06T04:12:09.307Z,99781.77
2024-04-06T04:14:39.428Z,99786.41
2024-04-06T04:17:11.189Z,99791.85
2024-04-06T04:19:41.626Z,99791.83
2024-04-06T04:22:13.274Z,99791.52
2024-04-06T04:24:44.103Z,99793.40
2024-04-06T04:27:15.522Z,99791.61
2024-04-06T04:29:46.487Z,99792.71
2024-04-06T04:32:18.057Z,99796.30
2024-04-06T04:34:48.374Z,99798.31
2024-04-06T04:37:20.024Z,99803.05
2024-04-06T04:39:50.347Z,99804.98
2024-04-06T04:42:21.908Z,99806.25
2024-04-06T04:44:53.633Z,99806.15
2024-04-06T04:47:30.234Z,99806.64
2024-04-06T04:50:01.072Z,99807.75
2024-04-06T04:52:33.126Z,99814.20
2024-04-06T04:55:04.590Z,99813.77
2024-04-06T04:57:36.030Z,99815.48
2024-04-06T05:00:08.339Z,99814.23
2024-04-06T05:02:39.959Z,99818.56
2024-04-06T05:05:10.285Z,99821.90
2024-04-06T05:07:42.443Z,99827.89
2024-04-06T05:10:12.673Z,99835.66
2024-04-06T05:12:44.326Z,99836.05
2024-04-06T05:15:16.187Z,99837.95
2024-04-06T05:17:48.556Z,99841.83
2024-04-06T05:20:18.778Z,99844.63
2024-04-06T05:22:50.452Z,99842.70
2024-04-06T05:25:20.959Z,99844.60
2024-04-06T05:27:52.825Z,99847.19
2024-04-06T05:30:23.045Z,99845.90
2024-04-06T05:32:54.697Z,99847.61
2024-04-06T05:35:25.121Z,99852.11
2024-04-06T05:37:56.684Z,99854.71
2024-04-06T05:40:27.000Z,99854.35
2024-04-06T05:42:58.658Z,99850.38
2024-04-06T05:45:28.972Z,99851.59
2024-04-06T05:48:07.438Z,99853.20
2024-04-06T05:50:41.825Z,99859.75
2024-04-06T05:53:14.393Z,99861.13
2024-04-06T05:55:44.709Z,99863.14
2024-04-06T05:58:16.369Z,99863.06
2024-04-06T06:00:46.898Z,99862.16
2024-04-06T06:03:18.561Z,99862.44
2024-04-06T06:05:49.193Z,99857.85
2024-04-06T06:08:20.639Z,99856.27
2024-04-06T06:10:50.961Z,99858.10
2024-04-06T06:13:23.436Z,99862.48
2024-04-06T06:15:53.557Z,99862.70
2024-04-06T06:18:25.313Z,99864.91
2024-04-06T06:20:55.653Z,99867.33
2024-04-06T06:23:27.591Z,99871.95
2024-04-06T06:25:58.136Z,99877.00
2024-04-06T06:28:29.880Z,99869.55
2024-04-06T06:31:02.265Z,99869.48
2024-04-06T06:33:34.932Z,99876.09
2024-04-06T06:40:41.234Z,99876.02
2024-04-06T06:41:31.921Z,99872.42
2024-04-06T06:44:02.452Z,99873.48
2024-04-06T06:46:33.990Z,99870.09
2024-04-06T06:49:04.420Z,99875.27
2024-04-06T06:51:36.590Z,99880.58
2024-04-06T06:54:07.123Z,99883.15
2024-04-06T06:56:38.720Z,99883.90
2024-04-06T06:59:09.192Z,99885.47
2024-04-06T07:01:40.958Z,99878.07
2024-04-06T07:04:11.338Z,99874.54
2024-04-06T07:09:18.586Z,99872.20
2024-04-06T07:11:49.015Z,99865.48
2024-04-06T07:14:20.535Z,99866.61
2024-04-06T07:16:51.194Z,99868.61
2024-04-06T07:19:22.648Z,99877.47
2024-04-06T07:21:53.067Z,99878.40
2024-04-06T07:24:24.857Z,99882.06
2024-04-06T07:26:55.256Z,99884.32
2024-04-06T07:29:26.920Z,99881.66
2024-04-06T07:31:57.336Z,99880.56
2024-04-06T07:34:28.895Z,99885.85
2024-04-06T07:36:59.239Z,99884.44
2024-04-06T07:39:30.870Z,99880.58
2024-04-06T07:42:01.198Z,99888.15
2024-04-06T07:44:33.071Z,99892.42
2024-04-06T07:47:03.377Z,99897.00
2024-04-06T07:49:35.239Z,99894.84
2024-04-06T07:52:06.316Z,99889.34
2024-04-06T07:54:38.139Z,99893.04
2024-04-06T07:57:08.463Z,99897.16
2024-04-06T07:59:40.018Z,99900.02
2024-04-06T08:02:12.186Z,99900.69
2024-04-06T08:04:46.149Z,99902.31
2024-04-06T08:07:16.344Z,99901.38
2024-04-06T08:09:48.175Z,99896.14
2024-04-06T08:12:18.706Z,99894.97
2024-04-06T08:14:50.357Z,99898.98
2024-04-06T08:17:21.088Z,99895.59
2024-04-06T08:19:52.539Z,99891.09
2024-04-06T08:22:23.077Z,99887.58
2024-04-06T08:24:54.835Z,99884.17
2024-04-06T08:27:25.054Z,99887.48
2024-04-06T08:29:56.814Z,99891.13
2024-04-06T08:32:27.133Z,99885.16
2024-04-06T08:35:02.371Z,99881.20
2024-04-06T08:37:34.861Z,99880.41
2024-04-06T08:40:06.801Z,99877.81
2024-04-06T08:42:41.946Z,99877.02
2024-04-06T08:45:14.117Z,99875.00
2024-04-06T08:47:44.354Z,99876.65
2024-04-06T08:50:15.786Z,99878.88
2024-04-06T08:52:46.214Z,99879.29
2024-04-06T08:55:18.317Z,99884.34
2024-04-06T08:57:49.430Z,99887.21
2024-04-06T09:00:21.079Z,99886.95
2024-04-06T09:02:51.402Z,99888.75
2024-04-06T09:05:23.167Z,99885.26
2024-04-06T09:07:53.488Z,99885.91
2024-04-06T09:10:26.205Z,99886.51
2024-04-06T09:12:56.390Z,99886.27
2024-04-06T09:15:28.055Z,99879.75
2024-04-06T09:17:58.375Z,99875.20
2024-04-06T09:20:30.124Z,99872.52
2024-04-06T09:23:00.459Z,99869.06
2024-04-06T09:25:32.307Z,99866.58
2024-04-06T09:28:05.397Z,99863.06
2024-04-06T09:30:42.937Z,99867.52
2024-04-06T09:33:14.749Z,99867.89
2024-04-06T09:35:44.968Z,99868.00
2024-04-06T09:38:16.727Z,99869.77
2024-04-06T09:40:50.119Z,99867.29
2024-04-06T09:43:21.774Z,99869.60
2024-04-06T09:45:52.308Z,99869.29
2024-04-06T09:48:23.866Z,99866.48
2024-04-06T09:50:54.185Z,99868.02
2024-04-06T09:53:26.369Z,99869.30
2024-04-06T09:55:56.785Z,99872.98
2024-04-06T09:58:31.612Z,99871.54
2024-04-06T10:01:13.297Z,99868.27
2024-04-06T10:03:46.801Z,99867.08
2024-04-06T10:06:18.358Z,99866.42
2024-04-06T10:08:53.699Z,99868.38
2024-04-06T10:11:26.269Z,99864.75
2024-04-06T10:14:04.154Z,99868.70
2024-04-06T10:16:37.674Z,99861.69
2024-04-06T10:19:11.186Z,99864.48
2024-04-06T10:21:48.348Z,99864.98
2024-04-06T10:24:21.030Z,99858.66
2024-04-06T10:26:51.761Z,99859.10
2024-04-06T10:29:23.831Z,99860.55
2024-04-06T10:31:54.416Z,99858.35
2024-04-06T10:34:31.410Z,99859.11
2024-04-06T10:37:06.275Z,99861.30
2024-04-06T10:39:36.623Z,99862.73
2024-04-06T10:42:08.480Z,99858.65
2024-04-06T10:44:38.681Z,99852.98
2024-04-06T10:47:11.704Z,99853.60
2024-04-06T10:49:43.215Z,99855.27
2024-04-06T10:52:15.192Z,99854.84
2024-04-06T10:54:45.577Z,99855.14
2024-04-06T10:57:17.467Z,99860.11
2024-04-06T10:59:47.800Z,99859.52
2024-04-06T11:02:19.545Z,99862.50
2024-04-06T11:04:50.280Z,99856.06
2024-04-06T11:07:21.761Z,99859.13
2024-04-06T11:09:52.259Z,99856.11
2024-04-06T11:12:30.185Z,99859.98
2024-04-06T11:15:02.245Z,99859.32
2024-04-06T11:17:32.598Z,99854.86
2024-04-06T11:20:05.394Z,99857.09
2024-04-06T11:22:39.560Z,99862.40
2024-04-06T11:25:15.423Z,99860.36
2024-04-06T11:27:50.744Z,99860.61
2024-04-06T11:30:22.809Z,99858.48
2024-04-06T11:32:54.770Z,99863.44
2024-04-06T11:35:26.217Z,99865.06
2024-04-06T11:37:56.537Z,99862.96
2024-04-06T11:40:28.200Z,99861.53
2024-04-06T11:42:58.743Z,99856.48
2024-04-06T11:45:30.902Z,99857.27
2024-04-06T11:48:01.124Z,99855.93
2024-04-06T11:50:33.192Z,99856.28
2024-04-06T11:53:04.019Z,99854.95
2024-04-06T11:55:35.582Z,99848.58
2024-04-06T11:58:06.000Z,99855.13
2024-04-06T12:00:38.369Z,99854.03
2024-04-06T12:03:08.908Z,99860.41
2024-04-06T12:05:40.758Z,99858.58
2024-04-06T12:08:12.320Z,99854.00
2024-04-06T12:10:43.989Z,99852.44
2024-04-06T12:13:14.713Z,99858.13
2024-04-06T12:15:46.148Z,99852.54
2024-04-06T12:18:16.472Z,99852.60
2024-04-06T12:20:48.033Z,99856.21
2024-04-06T12:23:19.243Z,99857.61
2024-04-06T12:25:50.740Z,99855.13
2024-04-06T12:28:21.116Z,99853.45
2024-04-06T12:30:52.810Z,99850.58
2024-04-06T12:33:23.135Z,99857.18
2024-04-06T12:35:54.682Z,99856.59
2024-04-06T12:38:25.207Z,99860.83
2024-04-06T12:40:57.070Z,99863.63
2024-04-06T12:43:28.111Z,99860.77
2024-04-06T12:45:59.561Z,99859.96
2024-04-06T12:48:30.088Z,99857.45
2024-04-06T12:51:02.475Z,99856.54
2024-04-06T12:53:32.996Z,99861.89
2024-04-06T12:56:04.856Z,99863.75
2024-04-06T12:58:35.803Z,99863.66
2024-04-06T13:01:08.065Z,99865.30
2024-04-06T13:03:43.282Z,99872.80
2024-04-06T13:06:20.995Z,99873.89
2024-04-06T13:08:51.325Z,99872.75
2024-04-06T13:11:22.993Z,99868.80
2024-04-06T13:13:55.094Z,99867.20
2024-04-06T13:16:27.818Z,99866.48
2024-04-06T13:19:00.201Z,99859.60
2024-04-06T13:21:31.743Z,99855.06
2024-04-06T13:24:02.078Z,99852.60
2024-04-06T13:26:35.058Z,99853.30
2024-04-06T13:29:05.488Z,99847.11
2024-04-06T13:31:37.344Z,99847.95
2024-04-06T13:34:10.138Z,99848.73
2024-04-06T13:36:41.992Z,99848.92
2024-04-06T13:39:13.543Z,99848.79
2024-04-06T13:41:45.515Z,99849.77
2024-04-06T13:44:16.240Z,99851.11
2024-04-06T13:46:47.703Z,99849.88
2024-04-06T13:49:18.221Z,99852.45
2024-04-06T13:51:49.869Z,99850.71
2024-04-06T13:54:20.404Z,99841.73
2024-04-06T13:56:51.955Z,99839.18
2024-04-06T13:59:23.932Z,99832.49
2024-04-06T14:01:55.714Z,99833.14
2024-04-06T14:04:26.295Z,99837.41
2024-04-06T14:06:58.165Z,99832.54
2024-04-06T14:09:28.485Z,99836.81
2024-04-06T14:12:00.179Z,99836.13
2024-04-06T14:14:30.752Z,99835.59
2024-04-06T14:17:02.629Z,99836.06
2024-04-06T14:19:34.695Z,99840.45
2024-04-06T14:22:06.357Z,99835.79
2024-04-06T14:24:37.822Z,99834.20
2024-04-06T14:27:09.872Z,99828.20
2024-04-06T14:29:40.088Z,99826.21
2024-04-06T14:32:11.856Z,99824.93
2024-04-06T14:34:42.888Z,99821.09
2024-04-06T14:37:14.459Z,99822.84
2024-04-06T14:39:44.884Z,99822.88
2024-04-06T14:42:16.629Z,99821.09
2024-04-06T14:44:46.968Z,99812.14
2024-04-06T14:47:18.716Z,99811.42
2024-04-06T14:49:49.036Z,99810.96
2024-04-06T14:52:20.813Z,99817.95
2024-04-06T14:54:53.067Z,99821.90
2024-04-06T14:57:24.622Z,99822.05
2024-04-06T14:59:55.463Z,99817.29
2024-04-06T15:02:27.007Z,99821.87
2024-04-06T15:04:58.568Z,99826.10
2024-04-06T15:07:36.969Z,99833.34
2024-04-06T15:10:09.969Z,99833.47
2024-04-06T15:12:40.795Z,99837.01
2024-04-06T15:15:12.758Z,99839.76
2024-04-06T15:17:42.879Z,99838.92
2024-04-06T15:20:14.842Z,99836.23
2024-04-06T15:22:45.058Z,99837.31
2024-04-06T15:25:19.267Z,99838.46
2024-04-06T15:27:49.805Z,99842.04
2024-04-06T15:30:21.352Z,99844.40
2024-04-06T15:32:51.785Z,99846.67
2024-04-06T15:35:23.854Z,99850.13
2024-04-06T15:37:53.968Z,99849.27
2024-04-06T15:40:26.276Z,99845.84
2024-04-06T15:42:56.357Z,99846.45
2024-04-06T15:45:28.116Z,99848.48
2024-04-06T15:48:00.393Z,99845.67
2024-04-06T15:50:31.846Z,99851.73
2024-04-06T15:53:02.163Z,99856.60
2024-04-06T15:55:36.788Z,99858.95
2024-04-06T15:58:09.428Z,99850.86
2024-04-06T16:00:40.398Z,99850.20
2024-04-06T16:03:12.266Z,99850.48
2024-04-06T16:05:42.485Z,99852.86
2024-04-06T16:08:14.245Z,99852.14
2024-04-06T16:10:44.578Z,99851.83
2024-04-06T16:13:16.420Z,99845.97
2024-04-06T16:15:47.067Z,99843.13
2024-04-06T16:18:18.619Z,99845.43
2024-04-06T16:20:49.041Z,99844.45
2024-04-06T16:23:20.648Z,99846.17
2024-04-06T16:25:50.818Z,99842.05
2024-04-06T16:28:22.587Z,99847.31
2024-04-06T16:30:54.227Z,99848.79
2024-04-06T16:33:27.109Z,99847.16
2024-04-06T16:35:57.645Z,99849.48
2024-04-06T16:38:29.188Z,99846.13
2024-04-06T16:40:59.518Z,99848.72
2024-04-06T16:43:31.229Z,99849.16
2024-04-06T16:46:02.921Z,99846.41
2024-04-06T16:48:34.484Z,99847.51
2024-04-06T16:51:05.415Z,99846.86
2024-04-06T16:53:37.901Z,99846.66
2024-04-06T16:56:08.180Z,99845.32
2024-04-06T16:58:39.975Z,99849.17
2024-04-06T17:01:10.602Z,99847.70
2024-04-06T17:03:42.977Z,99848.66
2024-04-06T17:06:13.307Z,99847.44
2024-04-06T17:08:45.263Z,99848.79
2024-04-06T17:11:15.502Z,99846.90
2024-04-06T17:13:47.040Z,99847.30
2024-04-06T17:16:17.400Z,99846.70
2024-04-06T17:18:50.349Z,99847.60
2024-04-06T17:21:21.385Z,99851.33
2024-04-06T17:23:52.943Z,99852.70
2024-04-06T17:26:23.576Z,99853.10
2024-04-06T17:28:55.231Z,99856.59
2024-04-06T17:31:25.771Z,99860.29
2024-04-06T17:33:58.166Z,99860.38
2024-04-06T17:36:28.356Z,99866.30
2024-04-06T17:39:00.221Z,99869.95
2024-04-06T17:41:30.536Z,99874.44
2024-04-06T17:44:02.398Z,99880.19
2024-04-06T17:46:36.206Z,99880.07
2024-04-06T17:49:07.766Z,99880.64
2024-04-06T17:51:39.255Z,99879.08
2024-04-06T17:54:10.962Z,99874.27
2024-04-06T17:56:41.195Z,99872.11
2024-04-06T17:59:13.157Z,99875.36
2024-04-06T18:01:43.371Z,99881.97
2024-04-06T18:04:15.236Z,99882.70
2024-04-06T18:06:45.859Z,99881.55
2024-04-06T18:09:18.135Z,99875.15
2024-04-06T18:11:48.467Z,99881.39
2024-04-06T18:14:20.211Z,99878.16
2024-04-06T18:16:50.437Z,99885.75
2024-04-06T18:19:22.095Z,99892.46
2024-04-06T18:21:53.637Z,99894.15
2024-04-06T18:24:25.394Z,99899.98
2024-04-06T18:26:55.732Z,99906.23
2024-04-06T18:29:30.861Z,99912.07
2024-04-06T18:32:04.167Z,99918.61
2024-04-06T18:34:34.632Z,99915.36
2024-04-06T18:37:07.567Z,99912.57
2024-04-06T18:39:37.901Z,99910.15
2024-04-06T18:42:09.656Z,99905.73
2024-04-06T18:44:39.973Z,99900.54
2024-04-06T18:47:12.142Z,99899.89
2024-04-06T18:49:42.575Z,99896.16
2024-04-06T18:52:14.329Z,99900.05
2024-04-06T18:54:44.573Z,99901.77
2024-04-06T18:57:16.100Z,99903.28
2024-04-06T18:59:46.848Z,99909.43
2024-04-06T19:02:18.821Z,99909.27
2024-04-06T19:04:49.019Z,99907.52
2024-04-06T19:07:20.566Z,99911.54
2024-04-06T19:09:51.098Z,99918.77
2024-04-06T19:12:22.654Z,99922.35
2024-04-06T19:14:53.000Z,99925.74
2024-04-06T19:17:24.632Z,99930.48
2024-04-06T19:19:55.059Z,99927.69
2024-04-06T19:22:27.295Z,99933.65
2024-04-06T19:24:57.791Z,99934.20
2024-04-06T19:27:29.832Z,99933.88
2024-04-06T19:30:00.844Z,99931.27
2024-04-06T19:32:32.413Z,99928.20
2024-04-06T19:35:02.836Z,99932.04
2024-04-06T19:37:34.624Z,99932.77
2024-04-06T19:40:05.980Z,99924.71
2024-04-06T19:42:37.400Z,99920.95
2024-04-06T19:45:08.331Z,99918.79
2024-04-06T19:47:40.499Z,99919.52
2024-04-06T19:50:10.830Z,99919.38
2024-04-06T19:52:43.609Z,99919.14
2024-04-06T19:55:16.196Z,99914.94
2024-04-06T19:57:48.146Z,99917.16
2024-04-06T20:00:19.908Z,99919.14
2024-04-06T20:02:51.659Z,99929.35
2024-04-06T20:05:22.093Z,99937.02
2024-04-06T20:07:53.644Z,99936.80
2024-04-06T20:10:24.068Z,99937.06
2024-04-06T20:12:55.694Z,99931.00
2024-04-06T20:15:26.161Z,99932.48
2024-04-06T20:17:58.925Z,99933.34
2024-04-06T20:20:29.365Z,99931.30
2024-04-06T20:23:19.854Z,99928.28
2024-04-06T20:26:03.492Z,99928.91
2024-04-06T20:28:36.961Z,99927.42
2024-04-06T20:31:07.783Z,99927.02
2024-04-06T20:33:41.640Z,99929.98
2024-04-06T20:36:12.160Z,99933.29
2024-04-06T20:38:43.820Z,99937.52
2024-04-06T20:41:16.086Z,99935.98
2024-04-06T20:43:48.357Z,99937.81
2024-04-06T20:46:18.576Z,99941.30
2024-04-06T20:48:50.328Z,99938.78
2024-04-06T20:51:20.862Z,99938.80
2024-04-06T20:53:52.615Z,99944.41
2024-04-06T20:56:22.854Z,99942.05
2024-04-06T20:58:55.787Z,99943.92
2024-04-06T21:01:26.078Z,99950.23
2024-04-06T21:03:57.708Z,99952.56
2024-04-06T21:06:28.026Z,99950.15
2024-04-06T21:08:59.781Z,99946.24
2024-04-06T21:11:30.008Z,99950.65
2024-04-06T21:14:01.763Z,99955.50
2024-04-06T21:16:32.138Z,99962.25
2024-04-06T21:19:03.767Z,99961.31
2024-04-06T21:21:34.687Z,99960.85
2024-04-06T21:24:06.853Z,99964.91
2024-04-06T21:26:39.839Z,99968.11
2024-04-06T21:29:11.386Z,99970.19
2024-04-06T21:31:41.857Z,99971.55
2024-04-06T21:34:13.671Z,99971.59
2024-04-06T21:36:44.209Z,99970.42
2024-04-06T21:39:15.657Z,99976.05
2024-04-06T21:41:46.091Z,99971.10
2024-04-06T21:44:17.945Z,99963.41
2024-04-06T21:46:48.058Z,99962.04
2024-04-06T21:49:19.717Z,99961.29
2024-04-06T21:51:50.047Z,99963.20
2024-04-06T21:54:22.826Z,99962.18
2024-04-06T21:56:53.145Z,99958.30
2024-04-06T21:59:24.594Z,99960.38
2024-04-06T22:01:55.124Z,99959.33
2024-04-06T22:04:27.029Z,99961.39
2024-04-06T22:06:58.233Z,99963.86
2024-04-06T22:09:29.678Z,99965.45
2024-04-06T22:12:00.114Z,99967.79
2024-04-06T22:14:32.067Z,99967.92
2024-04-06T22:17:02.410Z,99965.96
2024-04-06T22:19:34.080Z,99965.73
2024-04-06T22:22:04.683Z,99962.27
2024-04-06T22:24:36.132Z,99961.05
2024-04-06T22:27:06.451Z,99960.34
2024-04-06T22:29:38.010Z,99965.23
2024-04-06T22:32:08.433Z,99967.81
2024-04-06T22:34:40.237Z,99965.34
2024-04-06T22:37:10.621Z,99965.87
2024-04-06T22:39:42.387Z,99965.92
2024-04-06T22:42:12.694Z,99968.77
2024-04-06T22:44:44.283Z,99962.60
2024-04-06T22:47:14.674Z,99964.23
2024-04-06T22:49:46.438Z,99964.60
2024-04-06T22:52:16.761Z,99962.13
2024-04-06T22:54:48.524Z,99964.83
2024-04-06T22:57:18.949Z,99963.53
2024-04-06T22:59:50.394Z,99968.13
2024-04-06T23:02:20.830Z,99968.77
2024-04-06T23:04:52.476Z,99972.10
2024-04-06T23:07:24.709Z,99978.52
2024-04-06T23:09:58.040Z,99980.02
2024-04-06T23:12:28.260Z,99981.33
2024-04-06T23:14:59.913Z,99976.66
2024-04-06T23:17:30.757Z,99974.73
2024-04-06T23:20:02.314Z,99973.50
2024-04-06T23:22:32.625Z,99967.53
2024-04-06T23:25:04.877Z,99968.52
2024-04-06T23:27:35.432Z,99969.54
2024-04-06T23:30:08.211Z,99966.98
2024-04-06T23:32:38.846Z,99964.23
2024-04-06T23:35:10.498Z,99959.64
2024-04-06T23:37:40.645Z,99955.54
2024-04-06T23:40:12.685Z,99951.30
2024-04-06T23:42:42.901Z,99947.77
2024-04-06T23:45:15.379Z,99948.67
2024-04-06T23:47:45.503Z,99952.80
2024-04-06T23:50:17.462Z,99951.48
2024-04-06T23:52:49.115Z,99950.81
2024-04-06T23:55:20.873Z,99946.87
2024-04-06T23:57:51.919Z,99951.15
